• Join FlightAware (Why Join?)
  • Login
  • US Flag 
12:21PM EDT


 

Airport Tracker/Info


-or-


 

Live Flight TrackerFlight Track Log ✈ XOJ549 ✈ 01-May-2013 ✈ KCLE - KCRW

Flight Track Log - Related Links

Times and Time Zones

All times are in EDT time to prevent confusion due to time zone crossing. See the XOJ549 flight status page for this flight to view local times or setup timezone preferences in your user account.

Time Position Orientation Groundspeed Altitude Reporting Facility
EDT Latitude Longitude Course Direction KTS MPH feet Rate Location/Type
10:38AM 41.3814 -81.8811 174° South 181 208 2,000  Level Cleveland Center
10:39AM 41.2919 -81.8681 174° South 310 357 6,700 3,840 Climbing Cleveland Center
10:40AM 41.2942 -81.8544 78° East 272 313 7,900 4,260 Climbing Cleveland Center
10:40AM 41.2761 -81.7794 108° East 283 326 11,000 3,060 Climbing Cleveland Center
10:41AM 41.2481 -81.6683 109° East 301 346 12,900 2,100 Climbing Cleveland Center
10:42AM 41.2139 -81.5492 111° Southeast 320 368 15,200 2,460 Climbing Cleveland Center
10:43AM 41.1772 -81.4272 112° Southeast 339 390 17,900 2,700 Climbing Cleveland Center
10:44AM 41.1344 -81.2972 114° Southeast 368 423 20,600 1,500 Climbing Cleveland Center
10:45AM 41.0556 -81.2056 139° Southeast 379 436 21,000 180 Climbing Cleveland Center
10:46AM 40.9367 -81.2181 185° South 374 430 21,000  Level Cleveland Center
10:47AM 40.8261 -81.2306 185° South 384 442 21,000  Level Cleveland Center
10:48AM 40.7136 -81.2433 185° South 399 459 21,000 300 Level Cleveland Center
10:49AM 40.6031 -81.2531 184° South 404 465 21,600 480 Climbing Cleveland Center
10:50AM 40.4944 -81.2628 184° South 404 465 22,000 180 Climbing Cleveland Center
10:51AM 40.3797 -81.2781 186° South 409 471 22,000  Level Cleveland Center
10:52AM 40.2608 -81.2906 185° South 420 483 22,000  Level Cleveland Center
10:53AM 40.1461 -81.3000 184° South 425 489 22,000  Level Cleveland Center
10:54AM 40.0356 -81.3125 185° South 415 478 22,000  Level Cleveland Center
10:56AM 39.9136 -81.3250 184° South 387 445 22,000  Level Indianapolis Center
10:57AM 39.8075 -81.3358 184° South 381 438 22,000  Level Indianapolis Center
10:58AM 39.7033 -81.3464 184° South 376 433 22,000  Level Indianapolis Center
10:59AM 39.5992 -81.3583 185° South 376 433 22,000  Level Indianapolis Center
11:00AM 39.4917 -81.3683 184° South 384 442 22,000 -60 Level Indianapolis Center
11:01AM 39.3847 -81.3844 187° South 386 444 21,900 -1,320 Descending Indianapolis Center
11:02AM 39.2578 -81.4125 190° South 386 444 19,300 -2,220 Descending Indianapolis Center
11:03AM 39.1483 -81.4361 189° South 397 457 17,400 -2,040 Descending Indianapolis Center
11:04AM 39.0397 -81.4578 189° South 395 455 15,100 -2,220 Descending Indianapolis Center
11:05AM 38.9369 -81.4406 173° South 360 414 12,900 -1,860 Descending Indianapolis Center
11:06AM 38.8483 -81.4064 163° South 338 389 11,300 -1,680 Descending Indianapolis Center
11:07AM 38.7678 -81.3747 163° South 304 350 9,500 -1,800 Descending Indianapolis Center
11:08AM 38.6892 -81.3456 164° South 289 333 7,700 -1,800 Descending Indianapolis Center
11:09AM 38.6111 -81.3581 187° South 287 330 5,900 -1,800 Descending Indianapolis Center
11:10AM 38.5356 -81.3944 201° Southwest 287 330 4,100 -960 Descending Indianapolis Center
11:11AM 38.4800 -81.4461 216° Southwest 257 296 4,000 -660 Descending Indianapolis Center
11:12AM 38.4414 -81.5025 229° Southwest 227 261 2,800 -1,080 Descending Indianapolis Center
11:13AM 38.4086 -81.5486 228° Southwest 200 230 1,800 -780 Descending Indianapolis Center
11:14AM 38.3786 -81.5922 229° Southwest 178 205 1,300 -540 Descending Indianapolis Center